aviador You're here:

UBBB Decoded Metar

BAKU in AZERBAIJAN
Report Time2017-08-23 03:30:00
UTC Time2017-08-23 04:05:11
Flight Rules mvfr MVFR
Wind100° at 07 kt
W.Decomp.*RWY 16: 3.1 kt HW 6.3 kt LCW
RWY 18: 0.7 kt HW 7 kt LCW
W.Rank100° ranks 27
Current wind is above 100° avg. (5.8)
Visibility6000 m
Phenomena:N/A
Clouds:Scattered 018 Hf
Expected CloudBase > 2,400 ft AGL from Temp-Dew spread
CeilingNone
Temp27°C (ISA +12)
Dew Point21°C (70% RH)
Heat Index28.9°C
QNH1009 hPa
Density Alt1,821 ft
Elevation-20 ft
Report Wrong Elevation
Raw Report
METAR UBBB 230330Z 10007KT 6000 SCT018 27/21 Q1009 R88/D NOSIG=

Extra information for UBBB:More info

Metar Taf Metar & Taf Last 4 Metars F.Rules Stats Wind Profile Meteogram Temp Stats Airport Information Weather charts Add Link Nearby VenuesMetar ALERT Operation Metar Decoded Social comments